createdAt,value
2017-10-30T00:00:09.537Z,100835
2017-10-30T00:01:10.157Z,100839
2017-10-30T00:02:10.357Z,100838
2017-10-30T00:03:09.783Z,100842
2017-10-30T00:04:09.870Z,100845
2017-10-30T00:05:09.964Z,100847
2017-10-30T00:06:10.141Z,100845
2017-10-30T00:07:10.752Z,100851
2017-10-30T00:08:10.687Z,100850
2017-10-30T00:09:10.759Z,100849
2017-10-30T00:10:10.789Z,100851
2017-10-30T00:11:10.683Z,100854
2017-10-30T00:12:10.831Z,100849
2017-10-30T00:13:10.879Z,100857
2017-10-30T00:14:10.807Z,100854
2017-10-30T00:15:10.990Z,100860
2017-10-30T00:16:10.490Z,100859
2017-10-30T00:17:10.515Z,100856
2017-10-30T00:18:10.542Z,100863
2017-10-30T00:19:11.125Z,100863
2017-10-30T00:20:11.051Z,100863
2017-10-30T00:21:10.665Z,100864
2017-10-30T00:22:11.241Z,100870
2017-10-30T00:23:11.166Z,100867
2017-10-30T00:24:11.328Z,100870
2017-10-30T00:25:10.868Z,100872
2017-10-30T00:26:10.786Z,100872
2017-10-30T00:27:10.827Z,100870
2017-10-30T00:28:10.976Z,100867
2017-10-30T00:29:10.990Z,100879
2017-10-30T00:30:11.058Z,100865
2017-10-30T00:31:11.057Z,100876
2017-10-30T00:32:11.038Z,100881
2017-10-30T00:33:11.023Z,100878
2017-10-30T00:34:11.603Z,100877
2017-10-30T00:35:11.658Z,100881
2017-10-30T00:36:11.817Z,100878
2017-10-30T00:37:11.857Z,100878
2017-10-30T00:38:11.812Z,100878
2017-10-30T00:39:11.928Z,100879
2017-10-30T00:40:11.913Z,100877
2017-10-30T00:41:11.386Z,100879
2017-10-30T00:42:11.466Z,100874
2017-10-30T00:43:12.180Z,100877
2017-10-30T00:44:12.147Z,100877
2017-10-30T00:45:12.323Z,100881
2017-10-30T00:46:12.253Z,100881
2017-10-30T00:47:12.405Z,100878
2017-10-30T00:48:11.770Z,100880
2017-10-30T00:49:12.429Z,100883
2017-10-30T00:50:11.911Z,100886
2017-10-30T00:51:11.964Z,100885
2017-10-30T00:52:12.582Z,100886
2017-10-30T00:53:12.524Z,100886
2017-10-30T00:54:12.560Z,100894
2017-10-30T00:55:12.226Z,100894
2017-10-30T00:56:12.817Z,100888
2017-10-30T00:57:12.202Z,100896
2017-10-30T00:58:12.813Z,100894
2017-10-30T00:59:12.957Z,100888
2017-10-30T01:00:12.878Z,100890
2017-10-30T01:01:13.045Z,100888
2017-10-30T01:02:12.412Z,100886
2017-10-30T01:03:13.086Z,100886
2017-10-30T01:04:12.534Z,100883
2017-10-30T01:05:12.693Z,100886
2017-10-30T01:06:13.149Z,100887
2017-10-30T01:07:13.369Z,100886
2017-10-30T01:08:12.825Z,100884
2017-10-30T01:09:13.393Z,100885
2017-10-30T01:10:12.823Z,100886
2017-10-30T01:11:13.030Z,100895
2017-10-30T01:12:13.631Z,100887
2017-10-30T01:13:13.166Z,100891
2017-10-30T01:14:13.681Z,100891
2017-10-30T01:15:13.208Z,100891
2017-10-30T01:16:13.795Z,100889
2017-10-30T01:17:13.415Z,100888
2017-10-30T01:18:13.943Z,100886
2017-10-30T01:19:13.614Z,100889
2017-10-30T01:20:14.100Z,100881
2017-10-30T01:21:14.124Z,100876
2017-10-30T01:22:13.661Z,100884
2017-10-30T01:23:14.302Z,100888
2017-10-30T01:24:13.860Z,100886
2017-10-30T01:25:13.924Z,100889
2017-10-30T01:26:14.553Z,100890
2017-10-30T01:27:14.616Z,100893
2017-10-30T01:28:14.704Z,100893
2017-10-30T01:29:14.159Z,100898
2017-10-30T01:30:14.825Z,100901
2017-10-30T01:31:14.736Z,100891
2017-10-30T01:32:14.919Z,100891
2017-10-30T01:33:14.850Z,100897
2017-10-30T01:34:14.900Z,100898
2017-10-30T01:35:14.555Z,100897
2017-10-30T01:36:15.112Z,100898
2017-10-30T01:37:14.579Z,100894
2017-10-30T01:38:14.507Z,100893
2017-10-30T01:39:14.638Z,100892
2017-10-30T01:40:14.655Z,100889
2017-10-30T01:41:14.598Z,100896
2017-10-30T01:42:15.272Z,100894
2017-10-30T01:43:15.201Z,100897
2017-10-30T01:44:14.709Z,100895
2017-10-30T01:45:14.756Z,100894
2017-10-30T01:46:15.294Z,100889
2017-10-30T01:47:14.827Z,100891
2017-10-30T01:48:15.540Z,100894
2017-10-30T01:49:15.546Z,100894
2017-10-30T01:50:15.476Z,100897
2017-10-30T01:51:15.119Z,100893
2017-10-30T01:52:15.198Z,100897
2017-10-30T01:53:15.257Z,100898
2017-10-30T01:54:15.185Z,100896
2017-10-30T01:55:15.733Z,100894
2017-10-30T01:56:15.792Z,100891
2017-10-30T01:57:15.987Z,100895
2017-10-30T01:58:16.009Z,100903
2017-10-30T01:59:15.415Z,100902
2017-10-30T02:00:16.503Z,100902
2017-10-30T02:01:15.607Z,100903
2017-10-30T02:02:16.139Z,100896
2017-10-30T02:03:15.644Z,100898
2017-10-30T02:04:16.383Z,100907
2017-10-30T02:05:16.365Z,100902
2017-10-30T02:06:16.548Z,100899
2017-10-30T02:07:16.025Z,100902
2017-10-30T02:08:16.053Z,100898
2017-10-30T02:09:16.034Z,100898
2017-10-30T02:10:16.604Z,100900
2017-10-30T02:11:16.178Z,100899
2017-10-30T02:12:16.718Z,100891
2017-10-30T02:13:16.823Z,100893
2017-10-30T02:14:16.437Z,100890
2017-10-30T02:15:16.524Z,100892
2017-10-30T02:16:17.049Z,100887
2017-10-30T02:17:16.630Z,100887
2017-10-30T02:18:16.703Z,100891
2017-10-30T02:19:16.665Z,100892
2017-10-30T02:20:17.279Z,100895
2017-10-30T02:21:16.860Z,100898
2017-10-30T02:22:16.938Z,100902
2017-10-30T02:23:17.487Z,100906
2017-10-30T02:24:17.473Z,100909
2017-10-30T02:25:17.520Z,100909
2017-10-30T02:26:17.032Z,100913
2017-10-30T02:27:17.540Z,100915
2017-10-30T02:28:17.538Z,100914
2017-10-30T02:29:17.626Z,100911
2017-10-30T02:30:17.241Z,100913
2017-10-30T02:31:17.231Z,100912
2017-10-30T02:32:17.944Z,100911
2017-10-30T02:33:17.379Z,100912
2017-10-30T02:34:17.491Z,100914
2017-10-30T02:35:18.005Z,100911
2017-10-30T02:36:17.518Z,100916
2017-10-30T02:37:18.059Z,100917
2017-10-30T02:38:17.663Z,100918
2017-10-30T02:39:18.149Z,100920
2017-10-30T02:40:17.702Z,100918
2017-10-30T02:41:18.276Z,100925
2017-10-30T02:42:18.355Z,100916
2017-10-30T02:43:17.990Z,100913
2017-10-30T02:44:18.492Z,100914
2017-10-30T02:45:18.032Z,100911
2017-10-30T02:46:18.660Z,100918
2017-10-30T02:47:18.186Z,100912
2017-10-30T02:48:18.298Z,100914
2017-10-30T02:49:18.944Z,100912
2017-10-30T02:50:18.486Z,100919
2017-10-30T02:51:18.394Z,100918
2017-10-30T02:52:19.132Z,100917
2017-10-30T02:53:19.197Z,100921
2017-10-30T02:54:18.730Z,100922
2017-10-30T02:55:18.837Z,100916
2017-10-30T02:56:18.801Z,100920
2017-10-30T02:57:19.395Z,100920
2017-10-30T02:58:18.821Z,100916
2017-10-30T02:59:19.528Z,100920
2017-10-30T03:00:19.475Z,100911
2017-10-30T03:01:19.596Z,100921
2017-10-30T03:02:18.961Z,100918
2017-10-30T03:03:19.627Z,100924
2017-10-30T03:04:19.167Z,100926
2017-10-30T03:05:19.800Z,100926
2017-10-30T03:06:19.881Z,100926
2017-10-30T03:07:19.925Z,100923
2017-10-30T03:08:19.459Z,100933
2017-10-30T03:09:19.974Z,100938
2017-10-30T03:10:19.521Z,100934
2017-10-30T03:11:20.072Z,100939
2017-10-30T03:12:20.167Z,100935
2017-10-30T03:13:20.196Z,100937
2017-10-30T03:14:19.769Z,100939
2017-10-30T03:15:19.925Z,100942
2017-10-30T03:16:20.401Z,100945
2017-10-30T03:17:19.992Z,100940
2017-10-30T03:18:19.984Z,100944
2017-10-30T03:19:20.166Z,100942
2017-10-30T03:20:20.207Z,100942
2017-10-30T03:21:20.154Z,100943
2017-10-30T03:22:20.342Z,100947
2017-10-30T03:23:20.240Z,100946
2017-10-30T03:24:20.306Z,100948
2017-10-30T03:25:20.916Z,100951
2017-10-30T03:26:20.915Z,100951
2017-10-30T03:27:21.053Z,100955
2017-10-30T03:28:21.027Z,100950
2017-10-30T03:29:21.045Z,100951
2017-10-30T03:30:21.121Z,100959
2017-10-30T03:31:20.728Z,100957
2017-10-30T03:32:20.823Z,100965
2017-10-30T03:33:21.322Z,100966
2017-10-30T03:34:20.907Z,100967
2017-10-30T03:35:20.911Z,100967
2017-10-30T03:36:20.850Z,100962
2017-10-30T03:37:21.041Z,100969
2017-10-30T03:38:21.484Z,100971
2017-10-30T03:39:21.514Z,100970
2017-10-30T03:40:21.661Z,100981
2017-10-30T03:41:21.026Z,100979
2017-10-30T03:42:21.625Z,100978
2017-10-30T03:43:21.755Z,100983
2017-10-30T03:44:21.153Z,100983
2017-10-30T03:45:21.258Z,100983
2017-10-30T03:46:21.322Z,100982
2017-10-30T03:47:21.395Z,100977
2017-10-30T03:48:21.939Z,100986
2017-10-30T03:49:21.989Z,100987
2017-10-30T03:50:21.616Z,100984
2017-10-30T03:51:21.553Z,100986
2017-10-30T03:52:22.128Z,100990
2017-10-30T03:53:22.239Z,100991
2017-10-30T03:54:22.299Z,100985
2017-10-30T03:55:22.266Z,100985
2017-10-30T03:56:21.860Z,100987
2017-10-30T03:57:22.445Z,100988
2017-10-30T03:58:22.537Z,100991
2017-10-30T03:59:22.449Z,100997
2017-10-30T04:00:22.604Z,100993
2017-10-30T04:01:22.708Z,100988
2017-10-30T04:02:22.132Z,100991
2017-10-30T04:03:22.875Z,100986
2017-10-30T04:04:22.252Z,100989
2017-10-30T04:05:22.856Z,100998
2017-10-30T04:06:22.448Z,100994
2017-10-30T04:07:22.914Z,100994
2017-10-30T04:08:22.460Z,101001
2017-10-30T04:09:22.471Z,101000
2017-10-30T04:10:23.067Z,101006
2017-10-30T04:11:23.147Z,101003
2017-10-30T04:12:23.232Z,101007
2017-10-30T04:13:23.309Z,101008
2017-10-30T04:14:23.523Z,101012
2017-10-30T04:15:22.899Z,101010
2017-10-30T04:16:23.594Z,101014
2017-10-30T04:17:23.608Z,101008
2017-10-30T04:18:23.110Z,101007
2017-10-30T04:19:23.102Z,101012
2017-10-30T04:20:23.203Z,101012
2017-10-30T04:21:23.306Z,101013
2017-10-30T04:22:23.385Z,101013
2017-10-30T04:23:23.912Z,101013
2017-10-30T04:24:23.322Z,101017
2017-10-30T04:25:23.512Z,101020
2017-10-30T04:26:24.152Z,101014
2017-10-30T04:27:24.067Z,101016
2017-10-30T04:28:24.202Z,101012
2017-10-30T04:29:24.117Z,101018
2017-10-30T04:30:23.688Z,101013
2017-10-30T04:31:23.640Z,101018
2017-10-30T04:32:24.242Z,101019
2017-10-30T04:33:23.759Z,101015
2017-10-30T04:34:24.352Z,101025
2017-10-30T04:35:24.493Z,101025
2017-10-30T04:36:24.013Z,101023
2017-10-30T04:37:23.963Z,101027
2017-10-30T04:38:24.545Z,101026
2017-10-30T04:39:24.063Z,101030
2017-10-30T04:40:24.761Z,101032
2017-10-30T04:41:24.145Z,101032
2017-10-30T04:42:24.872Z,101038
2017-10-30T04:43:24.934Z,101039
2017-10-30T04:44:24.459Z,101035
2017-10-30T04:45:24.440Z,101029
2017-10-30T04:46:25.059Z,101033
2017-10-30T04:47:24.524Z,101030
2017-10-30T04:48:25.180Z,101029
2017-10-30T04:49:25.177Z,101032
2017-10-30T04:50:25.275Z,101028
2017-10-30T04:51:25.298Z,101036
2017-10-30T04:52:24.698Z,101038
2017-10-30T04:53:25.396Z,101040
2017-10-30T04:54:24.932Z,101043
2017-10-30T04:55:24.892Z,101045
2017-10-30T04:56:24.904Z,101042
2017-10-30T04:57:25.070Z,101042
2017-10-30T04:58:25.067Z,101050
2017-10-30T04:59:25.267Z,101043
2017-10-30T05:00:25.219Z,101053
2017-10-30T05:01:25.852Z,101052
2017-10-30T05:02:25.876Z,101055
2017-10-30T05:03:25.490Z,101054
2017-10-30T05:04:25.997Z,101045
2017-10-30T05:05:25.636Z,101044
2017-10-30T05:06:26.110Z,101044
2017-10-30T05:07:26.239Z,101044
2017-10-30T05:08:25.700Z,101042
2017-10-30T05:09:26.264Z,101045
2017-10-30T05:10:26.230Z,101051
2017-10-30T05:11:25.709Z,101056
2017-10-30T05:12:25.751Z,101059
2017-10-30T05:13:26.308Z,101062
2017-10-30T05:14:26.446Z,101065
2017-10-30T05:15:25.909Z,101066
2017-10-30T05:16:26.428Z,101065
2017-10-30T05:17:26.456Z,101072
2017-10-30T05:18:26.482Z,101069
2017-10-30T05:19:26.592Z,101070
2017-10-30T05:20:26.540Z,101071
2017-10-30T05:21:26.144Z,101073
2017-10-30T05:22:26.850Z,101077
2017-10-30T05:23:27.292Z,101062
2017-10-30T05:24:26.226Z,101058
2017-10-30T05:25:26.319Z,101064
2017-10-30T05:26:26.364Z,101061
2017-10-30T05:27:26.409Z,101066
2017-10-30T05:28:27.061Z,101059
2017-10-30T05:29:27.129Z,101058
2017-10-30T05:30:27.053Z,101064
2017-10-30T05:31:27.125Z,101061
2017-10-30T05:32:26.630Z,101062
2017-10-30T05:33:27.292Z,101066
2017-10-30T05:34:26.793Z,101064
2017-10-30T05:35:27.247Z,101064
2017-10-30T05:36:27.394Z,101063
2017-10-30T05:37:26.876Z,101068
2017-10-30T05:38:26.880Z,101070
2017-10-30T05:39:26.952Z,101062
2017-10-30T05:40:27.763Z,101063
2017-10-30T05:41:27.572Z,101073
2017-10-30T05:42:27.051Z,101075
2017-10-30T05:43:27.022Z,101072
2017-10-30T05:44:27.077Z,101075
2017-10-30T05:45:27.570Z,101079
2017-10-30T05:46:27.048Z,101079
2017-10-30T05:47:27.162Z,101078
2017-10-30T05:48:27.224Z,101079
2017-10-30T05:49:27.710Z,101083
2017-10-30T05:50:27.876Z,101078
2017-10-30T05:51:27.409Z,101078
2017-10-30T05:52:27.381Z,101083
2017-10-30T05:53:27.364Z,101082
2017-10-30T05:54:27.948Z,101084
2017-10-30T05:55:27.992Z,101085
2017-10-30T05:56:27.977Z,101083
2017-10-30T05:57:27.489Z,101081
2017-10-30T05:58:27.675Z,101083
2017-10-30T05:59:28.256Z,101080
2017-10-30T06:00:28.210Z,101084
2017-10-30T06:01:27.798Z,101083
2017-10-30T06:02:28.303Z,101072
2017-10-30T06:03:28.511Z,101081
2017-10-30T06:04:27.998Z,101073
2017-10-30T06:05:28.488Z,101075
2017-10-30T06:06:28.691Z,101080
2017-10-30T06:07:28.215Z,101081
2017-10-30T06:08:28.771Z,101083
2017-10-30T06:09:28.329Z,101087
2017-10-30T06:10:28.904Z,101092
2017-10-30T06:11:28.428Z,101093
2017-10-30T06:12:28.374Z,101095
2017-10-30T06:13:28.996Z,101101
2017-10-30T06:14:29.033Z,101101
2017-10-30T06:15:29.135Z,101103
2017-10-30T06:16:29.134Z,101106
2017-10-30T06:17:28.666Z,101103
2017-10-30T06:18:29.193Z,101105
2017-10-30T06:19:28.842Z,101106
2017-10-30T06:20:28.939Z,101108
2017-10-30T06:21:29.519Z,101107
2017-10-30T06:22:28.906Z,101104
2017-10-30T06:23:29.513Z,101105
2017-10-30T06:24:29.643Z,101108
2017-10-30T06:25:29.594Z,101108
2017-10-30T06:26:29.709Z,101105
2017-10-30T06:27:29.167Z,101105
2017-10-30T06:28:29.837Z,101104
2017-10-30T06:29:29.770Z,101109
2017-10-30T06:30:29.377Z,101108
2017-10-30T06:31:29.917Z,101115
2017-10-30T06:32:30.087Z,101117
2017-10-30T06:33:29.987Z,101122
2017-10-30T06:34:30.187Z,101118
2017-10-30T06:35:29.583Z,101118
2017-10-30T06:36:29.674Z,101119
2017-10-30T06:37:29.735Z,101116
2017-10-30T06:38:30.483Z,101116
2017-10-30T06:39:30.054Z,101105
2017-10-30T06:40:29.872Z,101108
2017-10-30T06:41:30.568Z,101117
2017-10-30T06:42:30.588Z,101119
2017-10-30T06:43:30.520Z,101119
2017-10-30T06:44:30.607Z,101125
2017-10-30T06:45:30.736Z,101126
2017-10-30T06:46:30.748Z,101123
2017-10-30T06:47:30.319Z,101122
2017-10-30T06:48:30.848Z,101126
2017-10-30T06:49:30.920Z,101135
2017-10-30T06:50:31.005Z,101138
2017-10-30T06:51:31.076Z,101139
2017-10-30T06:52:30.564Z,101134
2017-10-30T06:53:31.125Z,101140
2017-10-30T06:54:30.549Z,101141
2017-10-30T06:55:31.085Z,101146
2017-10-30T06:56:31.127Z,101153
2017-10-30T06:57:31.252Z,101149
2017-10-30T06:58:31.327Z,101149
2017-10-30T06:59:31.361Z,101150
2017-10-30T07:00:31.350Z,101148
2017-10-30T07:01:31.048Z,101146
2017-10-30T07:02:31.083Z,101153
2017-10-30T07:03:31.708Z,101156
2017-10-30T07:04:31.219Z,101155
2017-10-30T07:05:31.698Z,101157
2017-10-30T07:06:31.726Z,101164
2017-10-30T07:07:31.761Z,101162
2017-10-30T07:08:31.289Z,101165
2017-10-30T07:09:31.412Z,101155
2017-10-30T07:10:31.486Z,101162
2017-10-30T07:11:32.051Z,101163
2017-10-30T07:12:32.141Z,101160
2017-10-30T07:13:31.572Z,101169
2017-10-30T07:14:32.178Z,101164
2017-10-30T07:15:31.800Z,101172
2017-10-30T07:16:31.750Z,101172
2017-10-30T07:17:31.867Z,101175
2017-10-30T07:18:32.409Z,101173
2017-10-30T07:19:32.027Z,101179
2017-10-30T07:20:32.000Z,101177
2017-10-30T07:21:32.169Z,101179
2017-10-30T07:22:32.173Z,101177
2017-10-30T07:23:32.795Z,101180
2017-10-30T07:24:32.325Z,101182
2017-10-30T07:25:32.985Z,101185
2017-10-30T07:26:32.496Z,101181
2017-10-30T07:27:32.976Z,101184
2017-10-30T07:28:32.570Z,101182
2017-10-30T07:29:33.258Z,101184
2017-10-30T07:30:32.616Z,101192
2017-10-30T07:31:32.627Z,101194
2017-10-30T07:32:32.731Z,101198
2017-10-30T07:33:32.735Z,101196
2017-10-30T07:34:32.722Z,101200
2017-10-30T07:35:32.934Z,101202
2017-10-30T07:36:32.980Z,101204
2017-10-30T07:37:32.902Z,101202
2017-10-30T07:38:32.936Z,101208
2017-10-30T07:39:32.933Z,101209
2017-10-30T07:40:33.624Z,101207
2017-10-30T07:41:33.046Z,101205
2017-10-30T07:42:33.579Z,101210
2017-10-30T07:43:33.174Z,101207
2017-10-30T07:44:33.115Z,101205
2017-10-30T07:45:33.202Z,101206
2017-10-30T07:46:33.295Z,101217
2017-10-30T07:47:33.411Z,101220
2017-10-30T07:48:33.414Z,101225
2017-10-30T07:49:33.430Z,101230
2017-10-30T07:50:33.441Z,101226
2017-10-30T07:51:34.130Z,101228
2017-10-30T07:52:34.061Z,101231
2017-10-30T07:53:33.620Z,101225
2017-10-30T07:54:34.215Z,101221
2017-10-30T07:55:33.602Z,101227
2017-10-30T07:56:34.270Z,101230
2017-10-30T07:57:34.361Z,101229
2017-10-30T07:58:33.738Z,101231
2017-10-30T07:59:33.772Z,101230
2017-10-30T08:00:34.321Z,101234
2017-10-30T08:01:33.855Z,101231
2017-10-30T08:02:33.929Z,101227
2017-10-30T08:03:34.513Z,101234
2017-10-30T08:04:34.564Z,101232
2017-10-30T08:05:34.199Z,101235
2017-10-30T08:06:34.289Z,101232
2017-10-30T08:07:34.380Z,101239
2017-10-30T08:08:34.989Z,101243
2017-10-30T08:09:34.516Z,101239
2017-10-30T08:10:34.462Z,101238
2017-10-30T08:11:34.622Z,101240
2017-10-30T08:12:34.691Z,101243
2017-10-30T08:13:34.717Z,101248
2017-10-30T08:14:35.301Z,101241
2017-10-30T08:15:35.380Z,101244
2017-10-30T08:16:35.287Z,101244
2017-10-30T08:17:34.770Z,101243
2017-10-30T08:18:35.508Z,101242
2017-10-30T08:19:34.912Z,101248
2017-10-30T08:20:35.010Z,101246
2017-10-30T08:21:35.036Z,101251
2017-10-30T08:22:35.730Z,101250
2017-10-30T08:23:35.174Z,101249
2017-10-30T08:24:35.810Z,101251
2017-10-30T08:25:35.984Z,101238
2017-10-30T08:26:35.895Z,101248
2017-10-30T08:27:35.539Z,101243
2017-10-30T08:28:36.430Z,101247
2017-10-30T08:29:36.136Z,101244
2017-10-30T08:30:36.116Z,101251
2017-10-30T08:31:35.689Z,101249
2017-10-30T08:32:35.739Z,101251
2017-10-30T08:33:36.382Z,101249
2017-10-30T08:34:36.435Z,101252
2017-10-30T08:35:35.857Z,101251
2017-10-30T08:36:36.573Z,101246
2017-10-30T08:37:35.997Z,101243
2017-10-30T08:38:36.099Z,101245
2017-10-30T08:39:36.050Z,101209
2017-10-30T08:40:36.087Z,101246
2017-10-30T08:41:36.263Z,101246
2017-10-30T08:42:36.832Z,101240
2017-10-30T08:43:36.779Z,101244
2017-10-30T08:44:36.799Z,101246
2017-10-30T08:45:36.839Z,101249
2017-10-30T08:46:36.309Z,101246
2017-10-30T08:47:37.036Z,101248
2017-10-30T08:48:36.429Z,101248
2017-10-30T08:49:37.118Z,101254
2017-10-30T08:50:37.080Z,101250
2017-10-30T08:51:37.118Z,101251
2017-10-30T08:52:37.242Z,101256
2017-10-30T08:53:36.730Z,101265
2017-10-30T08:54:36.664Z,101262
2017-10-30T08:55:36.753Z,101268
2017-10-30T08:56:36.786Z,101267
2017-10-30T08:57:37.345Z,101269
2017-10-30T08:58:36.962Z,101260
2017-10-30T08:59:36.942Z,101271
2017-10-30T09:00:37.024Z,101272
2017-10-30T09:01:37.653Z,101275
2017-10-30T09:02:37.158Z,101272
2017-10-30T09:03:37.797Z,101279
2017-10-30T09:04:37.957Z,101273
2017-10-30T09:05:37.738Z,101279
2017-10-30T09:06:37.880Z,101274
2017-10-30T09:07:37.294Z,101278
2017-10-30T09:08:37.439Z,101272
2017-10-30T09:09:37.419Z,101280
2017-10-30T09:10:37.467Z,101280
2017-10-30T09:11:37.571Z,101279
2017-10-30T09:12:37.613Z,101286
2017-10-30T09:13:38.160Z,101285
2017-10-30T09:14:37.522Z,101286
2017-10-30T09:15:37.792Z,101261
2017-10-30T09:16:38.113Z,101285
2017-10-30T09:17:37.664Z,101289
2017-10-30T09:18:38.374Z,101292
2017-10-30T09:19:38.438Z,101293
2017-10-30T09:20:38.040Z,101281
2017-10-30T09:21:38.151Z,101289
2017-10-30T09:22:37.991Z,101281
2017-10-30T09:23:38.572Z,101287
2017-10-30T09:24:38.819Z,101290
2017-10-30T09:25:38.738Z,101287
2017-10-30T09:26:38.364Z,101286
2017-10-30T09:27:38.851Z,101285
2017-10-30T09:28:38.360Z,101286
2017-10-30T09:29:38.827Z,101288
2017-10-30T09:30:38.365Z,101288
2017-10-30T09:31:38.951Z,101286
2017-10-30T09:32:38.434Z,101287
2017-10-30T09:33:39.074Z,101283
2017-10-30T09:34:38.684Z,101290
2017-10-30T09:35:39.156Z,101288
2017-10-30T09:36:39.341Z,101290
2017-10-30T09:37:38.750Z,101285
2017-10-30T09:38:38.798Z,101289
2017-10-30T09:39:39.540Z,101283
2017-10-30T09:40:38.893Z,101292
2017-10-30T09:41:39.741Z,101293
2017-10-30T09:42:39.593Z,101287
2017-10-30T09:43:39.099Z,101288
2017-10-30T09:44:39.741Z,101280
2017-10-30T09:45:39.856Z,101281
2017-10-30T09:46:39.962Z,101284
2017-10-30T09:47:39.543Z,101288
2017-10-30T09:48:39.983Z,101286
2017-10-30T09:49:40.021Z,101286
2017-10-30T09:50:39.558Z,101289
2017-10-30T09:51:40.184Z,101289
2017-10-30T09:52:39.743Z,101294
2017-10-30T09:53:39.755Z,101296
2017-10-30T09:54:41.087Z,101300
2017-10-30T09:55:41.315Z,101300
2017-10-30T09:56:39.920Z,101292
2017-10-30T09:57:39.836Z,101296
2017-10-30T09:58:40.544Z,101305
2017-10-30T09:59:39.889Z,101302
2017-10-30T10:00:39.986Z,101293
2017-10-30T10:01:40.078Z,101303
2017-10-30T10:02:40.074Z,101304
2017-10-30T10:03:40.693Z,101300
2017-10-30T10:04:40.685Z,101306
2017-10-30T10:05:40.857Z,101302
2017-10-30T10:06:40.360Z,101307
2017-10-30T10:07:40.764Z,101311
2017-10-30T10:08:40.895Z,101310
2017-10-30T10:09:40.871Z,101308
2017-10-30T10:10:41.052Z,101310
2017-10-30T10:11:40.516Z,101308
2017-10-30T10:12:40.940Z,101317
2017-10-30T10:13:41.152Z,101311
2017-10-30T10:14:40.524Z,101306
2017-10-30T10:15:40.643Z,101315
2017-10-30T10:16:41.130Z,101306
2017-10-30T10:17:41.316Z,101314
2017-10-30T10:18:41.442Z,101305
2017-10-30T10:19:40.886Z,101313
2017-10-30T10:20:41.398Z,101311
2017-10-30T10:21:40.975Z,101312
2017-10-30T10:22:41.594Z,101311
2017-10-30T10:23:41.059Z,101310
2017-10-30T10:24:41.041Z,101303
2017-10-30T10:25:41.693Z,101309
2017-10-30T10:26:41.092Z,101307
2017-10-30T10:27:41.807Z,101316
2017-10-30T10:28:41.812Z,101321
2017-10-30T10:29:41.199Z,101319
2017-10-30T10:30:41.274Z,101325
2017-10-30T10:31:41.844Z,101325
2017-10-30T10:32:41.912Z,101319
2017-10-30T10:33:41.401Z,101322
2017-10-30T10:34:41.590Z,101322
2017-10-30T10:35:41.608Z,101319
2017-10-30T10:36:41.654Z,101321
2017-10-30T10:37:42.292Z,101321
2017-10-30T10:38:42.312Z,101318
2017-10-30T10:39:42.212Z,101317
2017-10-30T10:40:42.307Z,101310
2017-10-30T10:41:42.313Z,101316
2017-10-30T10:42:42.353Z,101316
2017-10-30T10:43:41.883Z,101318
2017-10-30T10:44:42.548Z,101324
2017-10-30T10:45:42.570Z,101322
2017-10-30T10:46:42.610Z,101324
2017-10-30T10:47:42.119Z,101329
2017-10-30T10:48:42.085Z,101325
2017-10-30T10:49:42.220Z,101325
2017-10-30T10:50:42.765Z,101330
2017-10-30T10:51:42.261Z,101326
2017-10-30T10:52:42.370Z,101328
2017-10-30T10:53:42.871Z,101334
2017-10-30T10:54:42.438Z,101336
2017-10-30T10:55:42.509Z,101339
2017-10-30T10:56:42.431Z,101337
2017-10-30T10:57:43.154Z,101336
2017-10-30T10:58:42.644Z,101337
2017-10-30T10:59:43.227Z,101340
2017-10-30T11:00:42.611Z,101337
2017-10-30T11:01:43.276Z,101338
2017-10-30T11:02:43.309Z,101336
2017-10-30T11:03:42.981Z,101329
2017-10-30T11:04:43.094Z,101329
2017-10-30T11:05:43.609Z,101331
2017-10-30T11:06:43.634Z,101330
2017-10-30T11:07:43.161Z,101336
2017-10-30T11:08:43.722Z,101335
2017-10-30T11:09:43.746Z,101334
2017-10-30T11:10:43.720Z,101334
2017-10-30T11:11:43.761Z,101339
2017-10-30T11:12:43.368Z,101340
2017-10-30T11:13:43.966Z,101333
2017-10-30T11:14:43.910Z,101337
2017-10-30T11:15:44.096Z,101337
2017-10-30T11:16:44.033Z,101337
2017-10-30T11:17:44.023Z,101336
2017-10-30T11:18:43.595Z,101332
2017-10-30T11:19:43.655Z,101334
2017-10-30T11:20:43.742Z,101333
2017-10-30T11:21:43.827Z,101333
2017-10-30T11:22:44.356Z,101337
2017-10-30T11:23:43.919Z,101333
2017-10-30T11:24:43.888Z,101334
2017-10-30T11:25:44.432Z,101334
2017-10-30T11:26:44.580Z,101333
2017-10-30T11:27:44.659Z,101340
2017-10-30T11:28:44.214Z,101341
2017-10-30T11:29:44.176Z,101336
2017-10-30T11:30:44.304Z,101332
2017-10-30T11:31:44.885Z,101337
2017-10-30T11:32:44.245Z,101335
2017-10-30T11:33:44.293Z,101332
2017-10-30T11:34:44.840Z,101329
2017-10-30T11:35:44.828Z,101328
2017-10-30T11:36:44.324Z,101326
2017-10-30T11:37:44.385Z,101328
2017-10-30T11:38:44.538Z,101332
2017-10-30T11:39:44.493Z,101332
2017-10-30T11:40:45.077Z,101330
2017-10-30T11:41:44.653Z,101334
2017-10-30T11:42:45.260Z,101334
2017-10-30T11:43:45.379Z,101327
2017-10-30T11:44:45.423Z,101312
2017-10-30T11:45:45.456Z,101333
2017-10-30T11:46:45.455Z,101333
2017-10-30T11:47:45.610Z,101333
2017-10-30T11:48:44.998Z,101329
2017-10-30T11:49:45.702Z,101335
2017-10-30T11:50:45.900Z,101332
2017-10-30T11:51:45.743Z,101329
2017-10-30T11:52:45.351Z,101333
2017-10-30T11:53:46.033Z,101327
2017-10-30T11:54:46.093Z,101325
2017-10-30T11:55:46.083Z,101328
2017-10-30T11:56:45.665Z,101331
2017-10-30T11:57:46.257Z,101330
2017-10-30T11:58:46.232Z,101333
2017-10-30T11:59:45.599Z,101335
2017-10-30T12:00:45.678Z,101332
2017-10-30T12:01:46.255Z,101338
2017-10-30T12:02:45.777Z,101337
2017-10-30T12:03:45.856Z,101329
2017-10-30T12:04:46.350Z,101326
2017-10-30T12:05:45.987Z,101322
2017-10-30T12:06:45.874Z,101327
2017-10-30T12:07:46.497Z,101326
2017-10-30T12:08:46.143Z,101332
2017-10-30T12:09:46.108Z,101323
2017-10-30T12:10:46.677Z,101326
2017-10-30T12:11:46.728Z,101327
2017-10-30T12:12:46.361Z,101335
2017-10-30T12:13:46.264Z,101331
2017-10-30T12:14:46.930Z,101329
2017-10-30T12:15:47.005Z,101332
2017-10-30T12:16:46.926Z,101331
2017-10-30T12:17:46.605Z,101334
2017-10-30T12:18:46.622Z,101326
2017-10-30T12:19:47.114Z,101335
2017-10-30T12:20:46.745Z,101344
2017-10-30T12:21:46.640Z,101332
2017-10-30T12:22:46.870Z,101334
2017-10-30T12:23:46.798Z,101338
2017-10-30T12:24:46.927Z,101336
2017-10-30T12:25:47.580Z,101343
2017-10-30T12:26:47.831Z,101340
2017-10-30T12:27:47.130Z,101344
2017-10-30T12:28:47.612Z,101346